Time;durP1;ratioP1;P1;durP2;ratioP2;P2;SDS_P1;SDS_P2;PMS_P1;PMS_P2;Temp;Humidity;BMP_temperature;BMP_pressure;BME280_temperature;BME280_humidity;BME280_pressure;Samples;Min_cycle;Max_cycle;Signal;HPM_P1;HPM_P2
2022/02/09 00:13:23;;;;;;;6.80;4.90;;;;;;;4.38;85.70;100306.24;209134;1316;141182;-78
2022/02/09 00:39:36;;;;;;;9.00;4.80;;;;;;;4.24;85.67;100330.83;208359;1318;140764;-75
2022/02/09 01:37:59;;;;;;;8.80;4.80;;;;;;;4.23;86.66;100363.91;207849;1314;141688;-74
2022/02/09 01:51:12;;;;;;;7.50;5.70;;;;;;;4.16;86.60;100367.93;207871;1316;140568;-78
2022/02/09 02:00:22;;;;;;;9.70;5.10;;;;;;;4.18;86.84;100355.96;207112;1315;143474;-75
2022/02/09 02:05:27;;;;;;;7.70;5.30;;;;;;;4.20;86.81;100351.96;208917;1317;140756;-73
2022/02/09 02:10:47;;;;;;;6.90;5.60;;;;;;;4.22;87.00;100341.89;207161;1315;141787;-79
2022/02/09 03:09:31;;;;;;;10.20;7.40;;;;;;;4.35;87.37;100383.75;207678;1316;140314;-83
2022/02/09 03:15:11;;;;;;;13.30;8.00;;;;;;;4.43;87.65;100386.52;207440;1316;140412;-86
2022/02/09 03:20:27;;;;;;;8.70;7.20;;;;;;;4.53;88.02;100387.70;207363;1313;140040;-84
2022/02/09 03:47:15;;;;;;;9.70;6.70;;;;;;;4.52;87.56;100390.95;207249;1315;141522;-83
2022/02/09 03:57:44;;;;;;;10.70;7.90;;;;;;;4.47;87.50;100399.10;207784;1316;141336;-86
2022/02/09 04:03:04;;;;;;;10.30;6.70;;;;;;;4.48;87.50;100402.35;207389;1317;141580;-88
2022/02/09 04:08:20;;;;;;;7.10;5.90;;;;;;;4.46;87.43;100408.14;208200;1316;140845;-76
2022/02/09 04:13:33;;;;;;;10.30;7.80;;;;;;;4.41;87.50;100405.90;208838;1316;140710;-88
2022/02/09 04:18:50;;;;;;;6.80;5.50;;;;;;;4.43;87.52;100416.79;208015;1317;140278;-83
2022/02/09 04:51:14;;;;;;;8.70;7.20;;;;;;;4.53;87.63;100413.90;207621;1316;141475;-85
2022/02/09 04:57:38;;;;;;;8.40;6.60;;;;;;;4.59;87.78;100419.30;208556;1316;141409;-82
2022/02/09 05:02:32;;;;;;;8.00;6.10;;;;;;;4.66;87.87;100425.64;207728;1317;139921;-87
2022/02/09 05:24:00;;;;;;;9.50;5.40;;;;;;;4.96;87.81;100427.09;207958;1317;141253;-85
2022/02/09 05:29:03;;;;;;;5.80;4.70;;;;;;;4.98;87.44;100420.30;207947;1317;140852;-88
2022/02/09 05:34:09;;;;;;;8.30;6.10;;;;;;;5.02;87.70;100422.11;207526;1316;140864;-84
2022/02/09 05:39:16;;;;;;;7.50;5.40;;;;;;;5.07;87.79;100416.41;207075;1317;141939;-83
2022/02/09 05:44:21;;;;;;;11.60;6.40;;;;;;;5.11;87.72;100422.61;207120;1317;141344;-83
2022/02/09 05:50:29;;;;;;;7.70;4.80;;;;;;;5.18;87.79;100435.11;208047;1316;141025;-83
2022/02/09 05:59:57;;;;;;;7.40;5.10;;;;;;;5.28;87.84;100434.05;207545;1316;141556;-84
2022/02/09 06:04:59;;;;;;;9.60;6.00;;;;;;;5.33;87.69;100431.23;208219;1315;141219;-84
2022/02/09 06:10:13;;;;;;;10.00;4.90;;;;;;;5.40;87.69;100434.54;207213;1317;140601;-85
2022/02/09 06:16:12;;;;;;;6.60;4.90;;;;;;;5.47;87.79;100439.67;207290;1316;141753;-84
2022/02/09 06:20:44;;;;;;;8.50;5.20;;;;;;;5.46;87.56;100433.27;207734;1316;142503;-83
2022/02/09 06:25:47;;;;;;;10.80;6.10;;;;;;;5.51;87.60;100427.34;208860;1316;141590;-84
2022/02/09 06:30:49;;;;;;;9.20;7.70;;;;;;;5.56;87.71;100432.04;209131;1317;142063;-85
2022/02/09 06:35:54;;;;;;;10.60;7.40;;;;;;;5.62;87.85;100436.95;209464;1316;141123;-84
2022/02/09 06:41:05;;;;;;;10.00;7.50;;;;;;;5.71;87.53;100439.55;208769;1316;141248;-83
2022/02/09 06:46:10;;;;;;;8.50;7.30;;;;;;;5.77;87.28;100436.61;207439;1317;141339;-86
2022/02/09 06:51:16;;;;;;;8.10;6.50;;;;;;;5.83;87.51;100439.67;209519;1317;140431;-86
2022/02/09 06:56:36;;;;;;;10.70;8.20;;;;;;;5.89;87.59;100444.05;207262;1317;142808;-86
2022/02/09 07:01:39;;;;;;;10.90;8.20;;;;;;;5.91;87.38;100437.11;207585;1316;141356;-86
2022/02/09 07:06:42;;;;;;;12.80;10.60;;;;;;;5.95;87.51;100436.96;207993;1317;141462;-83
2022/02/09 07:11:45;;;;;;;12.70;9.20;;;;;;;6.02;87.38;100453.11;207292;1317;142634;-84
2022/02/09 07:16:47;;;;;;;14.00;9.90;;;;;;;6.09;87.49;100443.27;207562;1317;165540;-81
2022/02/09 07:21:52;;;;;;;12.40;8.90;;;;;;;6.12;87.43;100446.08;207136;1317;143476;-84
2022/02/09 07:27:25;;;;;;;8.30;7.30;;;;;;;6.12;87.21;100443.76;207359;1317;141570;-82
2022/02/09 07:32:21;;;;;;;7.10;6.40;;;;;;;6.13;87.05;100445.16;207007;1317;141806;-86
2022/02/09 07:37:24;;;;;;;7.00;6.00;;;;;;;6.12;86.67;100438.55;207717;1315;141009;-85
2022/02/09 07:42:29;;;;;;;9.50;6.10;;;;;;;6.11;86.66;100438.19;207356;1316;141375;-73
2022/02/09 07:53:13;;;;;;;8.10;5.00;;;;;;;6.16;87.11;100453.29;207619;1316;141736;-84
2022/02/09 07:58:19;;;;;;;7.10;4.50;;;;;;;6.15;86.51;100461.99;207285;1318;141232;-79
2022/02/09 08:03:21;;;;;;;7.60;4.20;;;;;;;6.17;86.71;100461.31;207131;1316;140394;-87
2022/02/09 08:08:30;;;;;;;5.50;4.40;;;;;;;6.21;86.24;100464.01;206998;1317;144305;-84
2022/02/09 08:35:13;;;;;;;4.50;2.90;;;;;;;6.90;85.60;100430.33;208980;1316;140098;-84
2022/02/09 08:40:20;;;;;;;5.50;2.60;;;;;;;7.10;85.84;100430.45;208138;1316;140119;-86
2022/02/09 08:45:34;;;;;;;4.00;2.20;;;;;;;7.23;85.05;100433.63;207661;1316;142202;-85
2022/02/09 08:50:39;;;;;;;3.10;1.80;;;;;;;7.24;84.95;100439.52;209085;1315;140377;-85
2022/02/09 08:55:45;;;;;;;2.60;2.30;;;;;;;7.27;84.90;100439.16;208960;1317;140889;-86
2022/02/09 09:00:58;;;;;;;2.90;2.20;;;;;;;7.33;84.58;100430.86;208280;1317;139958;-79
2022/02/09 09:06:03;;;;;;;2.60;1.40;;;;;;;7.42;84.94;100429.39;207746;1317;140374;-80
2022/02/09 10:33:14;;;;;;;15.70;10.60;;;;;;;7.12;86.49;100410.52;207554;1316;141956;-83
2022/02/09 10:38:36;;;;;;;16.50;12.50;;;;;;;7.16;86.80;100412.09;207433;1316;143640;-84
2022/02/09 10:43:40;;;;;;;15.60;12.00;;;;;;;7.21;86.46;100407.55;207192;1316;143613;-82
2022/02/09 10:48:54;;;;;;;18.20;12.90;;;;;;;7.27;86.47;100409.99;209048;1316;141530;-76
2022/02/09 10:54:52;;;;;;;16.70;13.50;;;;;;;7.31;86.33;100405.36;208597;1316;142725;-84
2022/02/09 11:00:01;;;;;;;17.50;12.00;;;;;;;7.36;86.47;100405.86;208963;1317;140587;-82
2022/02/09 11:05:07;;;;;;;17.50;12.10;;;;;;;7.45;86.43;100405.52;208424;1316;489002;-81
2022/02/09 11:10:26;;;;;;;17.40;12.70;;;;;;;7.52;86.31;100397.52;207469;1318;140341;-83
2022/02/09 11:15:40;;;;;;;18.70;12.80;;;;;;;7.54;86.30;100403.58;206853;1317;140239;-85
2022/02/09 11:21:05;;;;;;;14.80;13.10;;;;;;;7.53;86.32;100401.45;208564;1316;141402;-82
2022/02/09 11:26:54;;;;;;;13.50;8.80;;;;;;;7.49;86.01;100400.77;206877;1315;141796;-84
2022/02/09 11:32:04;;;;;;;14.40;11.10;;;;;;;7.49;86.27;100396.36;206920;1316;141964;-85
2022/02/09 11:43:24;;;;;;;16.60;10.90;;;;;;;7.54;86.27;100394.23;208169;1316;141351;-82
2022/02/09 11:54:53;;;;;;;11.20;9.50;;;;;;;7.58;86.39;100389.77;207606;1316;140418;-80
2022/02/09 12:00:25;;;;;;;12.90;8.80;;;;;;;7.61;86.33;100390.42;207189;1316;140802;-82
2022/02/09 12:11:36;;;;;;;12.60;11.20;;;;;;;7.67;85.68;100382.98;208048;1316;142755;-78
2022/02/09 12:18:13;;;;;;;10.80;9.30;;;;;;;7.73;85.78;100382.11;208583;1316;141632;-82
2022/02/09 12:22:48;;;;;;;12.10;8.90;;;;;;;7.75;85.88;100378.98;207868;1316;140952;-82
2022/02/09 12:27:57;;;;;;;13.10;8.30;;;;;;;7.77;85.70;100374.94;207282;1315;140378;-82
2022/02/09 12:33:02;;;;;;;17.10;10.00;;;;;;;7.79;85.78;100378.58;207405;1315;141292;-71
2022/02/09 12:38:07;;;;;;;10.80;7.50;;;;;;;7.84;85.83;100372.23;207576;1317;141062;-82
2022/02/09 12:43:15;;;;;;;10.20;7.20;;;;;;;7.86;85.57;100384.36;208103;1316;141203;-82
2022/02/09 12:48:20;;;;;;;9.60;6.80;;;;;;;7.91;85.66;100376.70;207476;1316;140604;-80
2022/02/09 12:53:22;;;;;;;10.40;6.40;;;;;;;7.97;85.37;100374.40;208910;1316;141661;-84
2022/02/09 12:58:43;;;;;;;9.10;6.50;;;;;;;8.03;85.25;100376.45;208439;1317;140902;-82
2022/02/09 13:03:46;;;;;;;5.90;5.20;;;;;;;8.11;85.27;100383.81;208895;1316;141002;-83
2022/02/09 13:08:55;;;;;;;7.50;6.20;;;;;;;8.15;85.10;100380.73;207616;1316;141788;-71
2022/02/09 13:14:46;;;;;;;10.40;6.00;;;;;;;8.19;84.63;100378.27;208223;1318;139770;-83
2022/02/09 13:20:07;;;;;;;;;;;;;;;;;;;;;
2022/02/09 13:26:09;;;;;;;5.10;4.60;;;;;;;8.27;84.67;100368.95;208947;1317;141983;-82
2022/02/09 14:52:39;;;;;;;10.50;8.70;;;;;;;7.51;84.68;100348.34;207716;1314;140795;-77
2022/02/09 14:58:06;;;;;;;11.60;8.50;;;;;;;7.49;84.51;100348.54;208399;1318;140727;-83
2022/02/09 15:03:37;;;;;;;10.00;8.10;;;;;;;7.48;84.37;100352.05;208200;1316;140045;-83
2022/02/09 15:08:55;;;;;;;9.40;7.50;;;;;;;7.47;84.53;100342.85;208722;1316;140636;-74
2022/02/09 15:14:13;;;;;;;10.20;8.60;;;;;;;7.46;83.95;100341.46;207540;1316;141655;-83
2022/02/09 15:24:37;;;;;;;7.20;5.80;;;;;;;7.42;84.16;100349.81;207362;1316;142272;-84
2022/02/09 15:29:42;;;;;;;9.70;7.20;;;;;;;7.40;84.03;100344.91;207071;1316;142384;-69
2022/02/09 15:34:50;;;;;;;9.00;7.00;;;;;;;7.39;83.78;100346.33;208085;1317;142318;-82
2022/02/09 15:39:54;;;;;;;;;;;;;;;7.35;84.29;100344.60;207666;1316;140619;-79
2022/02/09 16:07:16;;;;;;;9.10;5.90;;;;;;;7.27;83.32;100339.41;207427;1316;142758;-73
2022/02/09 16:17:42;;;;;;;9.20;5.10;;;;;;;7.26;83.43;100339.33;207163;1312;162852;-73
2022/02/09 16:22:51;;;;;;;8.00;4.90;;;;;;;7.26;83.18;100339.95;207448;1315;140777;-72
2022/02/09 16:44:39;;;;;;;5.50;4.00;;;;;;;7.26;82.60;100338.06;207071;1316;143292;-73
2022/02/09 16:50:03;;;;;;;5.90;4.50;;;;;;;7.22;82.73;100332.24;207393;1316;142181;-77
2022/02/09 17:23:12;;;;;;;5.40;4.70;;;;;;;7.21;81.70;100328.13;208809;1316;140178;-79
2022/02/09 17:28:19;;;;;;;3.90;3.50;;;;;;;7.25;81.55;100334.02;208215;1315;140830;-83
2022/02/09 17:39:00;;;;;;;6.80;3.90;;;;;;;7.29;81.41;100331.59;208115;1316;141262;-73
2022/02/09 18:00:29;;;;;;;6.00;3.40;;;;;;;7.19;80.78;100327.13;207987;1319;141416;-77
2022/02/09 18:10:50;;;;;;;4.50;3.80;;;;;;;7.16;80.74;100326.31;206742;1317;141722;-77
2022/02/09 18:32:36;;;;;;;12.20;5.30;;;;;;;7.09;79.76;100334.59;207126;1316;143678;-76
2022/02/09 18:38:05;;;;;;;6.70;4.70;;;;;;;7.07;79.75;100335.80;207416;1318;141397;-79
2022/02/09 19:03:58;;;;;;;6.90;5.00;;;;;;;6.83;80.96;100336.71;206520;1316;1009585;-78
2022/02/09 19:15:17;;;;;;;9.30;4.80;;;;;;;6.88;80.69;100353.66;208085;1315;140901;-75
2022/02/09 19:31:31;;;;;;;5.30;4.40;;;;;;;6.91;80.83;100364.13;207374;1316;140484;-72
2022/02/09 19:47:30;;;;;;;8.50;5.50;;;;;;;6.90;80.30;100354.73;208196;1318;139777;-79
2022/02/09 19:57:41;;;;;;;6.50;5.10;;;;;;;6.95;80.03;100351.83;207091;1317;140839;-73
2022/02/09 20:02:49;;;;;;;6.60;4.60;;;;;;;6.96;80.00;100357.02;207929;1317;140485;-75
2022/02/09 20:07:56;;;;;;;5.70;3.90;;;;;;;6.92;80.11;100360.46;207678;1313;140249;-71
2022/02/09 20:12:59;;;;;;;6.80;4.80;;;;;;;6.91;80.28;100367.05;208221;1316;139883;-73
2022/02/09 20:18:02;;;;;;;6.70;5.20;;;;;;;6.89;80.15;100365.70;207797;1316;140717;-79
2022/02/09 20:23:06;;;;;;;6.70;5.30;;;;;;;6.86;80.18;100366.54;206927;1316;140444;-75
2022/02/09 20:28:42;;;;;;;7.00;4.70;;;;;;;6.84;80.50;100362.69;207459;1314;139017;-77
2022/02/09 20:33:54;;;;;;;9.40;5.20;;;;;;;6.81;80.56;100354.91;206940;1317;139396;-76
2022/02/09 20:39:05;;;;;;;7.60;5.40;;;;;;;6.74;80.54;100356.60;208185;1317;140607;-72
2022/02/09 20:44:27;;;;;;;8.30;6.50;;;;;;;6.71;80.75;100353.20;207943;1317;141077;-75
2022/02/09 20:49:34;;;;;;;8.10;3.90;;;;;;;6.73;80.64;100353.36;207630;1316;139634;-72
2022/02/09 20:54:41;;;;;;;7.00;6.00;;;;;;;6.72;80.61;100354.39;207543;1316;139901;-73
2022/02/09 20:59:51;;;;;;;8.80;5.10;;;;;;;6.71;80.62;100359.44;207321;1316;140901;-70
2022/02/09 21:05:05;;;;;;;8.90;7.10;;;;;;;6.73;80.77;100364.52;207913;1316;139903;-75
2022/02/09 21:10:30;;;;;;;8.60;5.70;;;;;;;6.73;80.62;100374.80;207695;1316;139908;-75
2022/02/09 21:58:23;;;;;;;8.50;6.80;;;;;;;6.77;80.79;100363.16;207760;1316;233260;-72
2022/02/09 22:31:29;;;;;;;9.90;7.50;;;;;;;6.66;80.88;100358.21;207191;1316;140171;-71
2022/02/09 22:58:04;;;;;;;14.60;8.50;;;;;;;6.45;81.64;100343.89;206925;1317;140485;-79
2022/02/09 23:03:09;;;;;;;11.40;8.30;;;;;;;6.41;81.94;100341.75;207528;1316;141084;-74
2022/02/09 23:57:01;;;;;;;10.70;7.10;;;;;;;6.35;82.67;100314.33;208034;1315;140622;-75
